sensor_id;sensor_type;location;lat;lon;timestamp;pressure;altitude;pressure_sealevel;temperature;humidity
1926;BME280;964;42.606;23.588;2022-09-24T00:01:48;94882.47;;;19.65;36.95
1926;BME280;964;42.606;23.588;2022-09-24T00:04:16;94882.00;;;19.77;36.36
1926;BME280;964;42.606;23.588;2022-09-24T00:06:44;94884.81;;;19.63;36.32
1926;BME280;964;42.606;23.588;2022-09-24T00:09:13;94878.03;;;20.23;35.96
1926;BME280;964;42.606;23.588;2022-09-24T00:11:41;94881.78;;;20.36;35.56
1926;BME280;964;42.606;23.588;2022-09-24T00:14:10;94877.13;;;20.02;35.69
1926;BME280;964;42.606;23.588;2022-09-24T00:16:38;94882.00;;;20.11;35.93
1926;BME280;964;42.606;23.588;2022-09-24T00:19:07;94883.16;;;20.14;35.95
1926;BME280;964;42.606;23.588;2022-09-24T00:21:36;94872.28;;;20.58;34.76
1926;BME280;964;42.606;23.588;2022-09-24T00:24:05;94879.88;;;20.63;35.08
1926;BME280;964;42.606;23.588;2022-09-24T00:26:32;94881.59;;;20.50;34.93
1926;BME280;964;42.606;23.588;2022-09-24T00:29:18;94887.47;;;20.41;35.43
1926;BME280;964;42.606;23.588;2022-09-24T00:31:45;94880.34;;;20.85;34.68
1926;BME280;964;42.606;23.588;2022-09-24T00:34:14;94883.47;;;20.83;34.68
1926;BME280;964;42.606;23.588;2022-09-24T00:36:40;94880.97;;;20.69;34.24
1926;BME280;964;42.606;23.588;2022-09-24T00:39:07;94879.09;;;20.63;34.56
1926;BME280;964;42.606;23.588;2022-09-24T00:41:36;94885.72;;;20.58;34.52
1926;BME280;964;42.606;23.588;2022-09-24T00:47:03;94886.16;;;20.53;34.78
1926;BME280;964;42.606;23.588;2022-09-24T00:49:31;94877.47;;;20.42;34.82
1926;BME280;964;42.606;23.588;2022-09-24T00:51:58;94884.16;;;20.27;34.96
1926;BME280;964;42.606;23.588;2022-09-24T00:54:27;94878.53;;;20.48;34.52
1926;BME280;964;42.606;23.588;2022-09-24T00:56:56;94874.00;;;20.41;34.64
1926;BME280;964;42.606;23.588;2022-09-24T00:59:24;94881.72;;;20.39;34.50
1926;BME280;964;42.606;23.588;2022-09-24T01:01:53;94885.13;;;20.10;34.80
1926;BME280;964;42.606;23.588;2022-09-24T01:04:24;94866.81;;;19.94;35.42
1926;BME280;964;42.606;23.588;2022-09-24T01:06:54;94875.31;;;19.92;35.14
1926;BME280;964;42.606;23.588;2022-09-24T01:09:23;94873.28;;;19.66;35.72
1926;BME280;964;42.606;23.588;2022-09-24T01:11:57;94871.00;;;19.61;35.42
1926;BME280;964;42.606;23.588;2022-09-24T01:14:37;94867.97;;;19.59;35.56
1926;BME280;964;42.606;23.588;2022-09-24T01:17:14;94871.00;;;19.61;35.44
1926;BME280;964;42.606;23.588;2022-09-24T01:22:54;94864.09;;;19.60;35.85
1926;BME280;964;42.606;23.588;2022-09-24T01:25:28;94863.66;;;19.65;35.85
1926;BME280;964;42.606;23.588;2022-09-24T01:28:07;94862.44;;;19.73;35.38
1926;BME280;964;42.606;23.588;2022-09-24T01:30:42;94871.06;;;19.54;36.18
1926;BME280;964;42.606;23.588;2022-09-24T01:33:16;94876.25;;;18.76;37.39
1926;BME280;964;42.606;23.588;2022-09-24T01:35:49;94879.63;;;17.86;39.37
1926;BME280;964;42.606;23.588;2022-09-24T01:38:20;94876.53;;;17.98;39.09
1926;BME280;964;42.606;23.588;2022-09-24T01:40:48;94878.75;;;18.24;38.44
1926;BME280;964;42.606;23.588;2022-09-24T01:43:19;94883.28;;;18.38;38.68
1926;BME280;964;42.606;23.588;2022-09-24T01:45:48;94871.75;;;18.48;38.32
1926;BME280;964;42.606;23.588;2022-09-24T01:48:17;94882.72;;;18.78;37.69
1926;BME280;964;42.606;23.588;2022-09-24T01:50:50;94877.38;;;19.30;36.60
1926;BME280;964;42.606;23.588;2022-09-24T01:53:22;94881.28;;;19.22;36.51
1926;BME280;964;42.606;23.588;2022-09-24T01:55:52;94876.88;;;18.94;37.24
1926;BME280;964;42.606;23.588;2022-09-24T01:58:22;94882.19;;;19.04;37.29
1926;BME280;964;42.606;23.588;2022-09-24T02:01:00;94871.16;;;19.40;36.46
1926;BME280;964;42.606;23.588;2022-09-24T02:03:33;94866.28;;;19.72;36.15
1926;BME280;964;42.606;23.588;2022-09-24T02:06:04;94869.94;;;19.92;35.12
1926;BME280;964;42.606;23.588;2022-09-24T02:08:38;94862.56;;;19.59;35.47
1926;BME280;964;42.606;23.588;2022-09-24T02:11:07;94864.00;;;19.71;35.15
1926;BME280;964;42.606;23.588;2022-09-24T02:13:42;94879.66;;;19.31;35.83
1926;BME280;964;42.606;23.588;2022-09-24T02:16:14;94879.81;;;19.14;36.53
1926;BME280;964;42.606;23.588;2022-09-24T02:18:46;94889.81;;;19.09;35.91
1926;BME280;964;42.606;23.588;2022-09-24T02:21:16;94890.31;;;19.49;35.56
1926;BME280;964;42.606;23.588;2022-09-24T02:23:48;94885.50;;;19.74;35.18
1926;BME280;964;42.606;23.588;2022-09-24T02:26:16;94894.91;;;19.52;35.24
1926;BME280;964;42.606;23.588;2022-09-24T02:28:43;94901.25;;;19.72;35.06
1926;BME280;964;42.606;23.588;2022-09-24T02:31:14;94905.31;;;19.39;35.21
1926;BME280;964;42.606;23.588;2022-09-24T02:33:46;94911.06;;;19.48;35.26
1926;BME280;964;42.606;23.588;2022-09-24T02:36:34;94907.22;;;19.46;35.38
1926;BME280;964;42.606;23.588;2022-09-24T02:39:01;94910.47;;;19.20;35.78
1926;BME280;964;42.606;23.588;2022-09-24T02:41:29;94905.09;;;19.20;35.39
1926;BME280;964;42.606;23.588;2022-09-24T02:43:57;94913.28;;;18.98;36.02
1926;BME280;964;42.606;23.588;2022-09-24T02:46:25;94912.03;;;19.14;36.67
1926;BME280;964;42.606;23.588;2022-09-24T02:48:52;94908.03;;;19.36;35.80
1926;BME280;964;42.606;23.588;2022-09-24T02:51:19;94911.03;;;19.52;35.34
1926;BME280;964;42.606;23.588;2022-09-24T02:53:46;94913.53;;;19.22;36.29
1926;BME280;964;42.606;23.588;2022-09-24T02:56:13;94914.38;;;19.12;35.79
1926;BME280;964;42.606;23.588;2022-09-24T02:58:40;94921.28;;;19.05;36.59
1926;BME280;964;42.606;23.588;2022-09-24T03:01:06;94920.94;;;19.03;36.06
1926;BME280;964;42.606;23.588;2022-09-24T03:03:35;94929.41;;;18.98;36.24
1926;BME280;964;42.606;23.588;2022-09-24T03:06:01;94930.56;;;18.97;36.39
1926;BME280;964;42.606;23.588;2022-09-24T03:08:29;94933.75;;;18.78;36.05
1926;BME280;964;42.606;23.588;2022-09-24T03:10:57;94933.91;;;19.16;34.95
1926;BME280;964;42.606;23.588;2022-09-24T03:13:25;94938.31;;;18.81;35.38
1926;BME280;964;42.606;23.588;2022-09-24T03:15:51;94934.44;;;18.89;36.41
1926;BME280;964;42.606;23.588;2022-09-24T03:18:18;94932.97;;;18.78;36.42
1926;BME280;964;42.606;23.588;2022-09-24T03:20:54;94935.06;;;18.28;37.15
1926;BME280;964;42.606;23.588;2022-09-24T03:23:21;94931.59;;;18.31;37.59
1926;BME280;964;42.606;23.588;2022-09-24T03:25:48;94930.78;;;18.48;36.73
1926;BME280;964;42.606;23.588;2022-09-24T03:28:15;94932.78;;;18.23;38.17
1926;BME280;964;42.606;23.588;2022-09-24T03:30:42;94930.06;;;18.30;37.38
1926;BME280;964;42.606;23.588;2022-09-24T03:33:28;94929.25;;;18.40;37.99
1926;BME280;964;42.606;23.588;2022-09-24T03:35:58;94934.75;;;17.97;38.50
1926;BME280;964;42.606;23.588;2022-09-24T03:38:26;94937.84;;;17.78;38.41
1926;BME280;964;42.606;23.588;2022-09-24T03:40:53;94942.00;;;18.07;38.20
1926;BME280;964;42.606;23.588;2022-09-24T03:43:20;94950.78;;;18.26;37.46
1926;BME280;964;42.606;23.588;2022-09-24T03:45:47;94943.03;;;18.49;36.80
1926;BME280;964;42.606;23.588;2022-09-24T03:48:14;94945.72;;;19.29;35.83
1926;BME280;964;42.606;23.588;2022-09-24T03:50:41;94957.34;;;19.12;36.03
1926;BME280;964;42.606;23.588;2022-09-24T03:53:09;94952.16;;;19.38;35.08
1926;BME280;964;42.606;23.588;2022-09-24T03:55:41;94954.47;;;19.40;34.75
1926;BME280;964;42.606;23.588;2022-09-24T03:58:08;94955.22;;;18.78;36.34
1926;BME280;964;42.606;23.588;2022-09-24T04:00:34;94955.97;;;18.82;35.49
1926;BME280;964;42.606;23.588;2022-09-24T04:03:01;94953.75;;;18.63;35.66
1926;BME280;964;42.606;23.588;2022-09-24T04:05:28;94954.66;;;18.00;37.51
1926;BME280;964;42.606;23.588;2022-09-24T04:07:55;94953.09;;;18.24;36.96
1926;BME280;964;42.606;23.588;2022-09-24T04:10:23;94964.53;;;18.42;37.13
1926;BME280;964;42.606;23.588;2022-09-24T04:12:50;94957.75;;;17.91;38.09
1926;BME280;964;42.606;23.588;2022-09-24T04:15:17;94956.59;;;17.92;38.26
1926;BME280;964;42.606;23.588;2022-09-24T04:17:48;94959.22;;;18.21;38.12
1926;BME280;964;42.606;23.588;2022-09-24T04:20:15;94954.59;;;18.39;37.45
1926;BME280;964;42.606;23.588;2022-09-24T04:22:42;94953.00;;;18.59;36.25
1926;BME280;964;42.606;23.588;2022-09-24T04:25:09;94960.75;;;18.22;37.30
1926;BME280;964;42.606;23.588;2022-09-24T04:27:37;94965.38;;;18.18;37.11
1926;BME280;964;42.606;23.588;2022-09-24T04:30:06;94970.69;;;18.39;37.38
1926;BME280;964;42.606;23.588;2022-09-24T04:32:33;94973.25;;;18.78;36.50
1926;BME280;964;42.606;23.588;2022-09-24T04:35:00;94970.97;;;18.69;36.28
1926;BME280;964;42.606;23.588;2022-09-24T04:37:27;94973.66;;;18.69;36.59
1926;BME280;964;42.606;23.588;2022-09-24T04:39:53;94972.91;;;18.69;36.05
1926;BME280;964;42.606;23.588;2022-09-24T04:42:20;94971.34;;;18.71;36.16
1926;BME280;964;42.606;23.588;2022-09-24T04:44:48;94967.38;;;19.00;35.87
1926;BME280;964;42.606;23.588;2022-09-24T04:47:15;94975.72;;;19.17;36.23
1926;BME280;964;42.606;23.588;2022-09-24T04:49:42;94970.97;;;19.42;35.56
1926;BME280;964;42.606;23.588;2022-09-24T04:52:11;94976.97;;;19.67;35.77
1926;BME280;964;42.606;23.588;2022-09-24T04:54:39;94972.97;;;19.82;35.69
1926;BME280;964;42.606;23.588;2022-09-24T04:57:09;94967.09;;;20.39;35.01
1926;BME280;964;42.606;23.588;2022-09-24T04:59:36;94969.53;;;20.60;34.33
1926;BME280;964;42.606;23.588;2022-09-24T05:02:04;94963.38;;;20.93;34.36
1926;BME280;964;42.606;23.588;2022-09-24T05:04:33;94970.63;;;20.96;33.99
1926;BME280;964;42.606;23.588;2022-09-24T05:07:00;94966.09;;;20.90;33.94
1926;BME280;964;42.606;23.588;2022-09-24T05:09:26;94971.31;;;21.04;33.19
1926;BME280;964;42.606;23.588;2022-09-24T05:11:54;94972.00;;;21.65;32.50
1926;BME280;964;42.606;23.588;2022-09-24T05:14:21;94966.25;;;21.63;32.04
1926;BME280;964;42.606;23.588;2022-09-24T05:16:48;94960.09;;;21.86;32.06
1926;BME280;964;42.606;23.588;2022-09-24T05:19:16;94968.34;;;21.75;32.16
1926;BME280;964;42.606;23.588;2022-09-24T05:21:42;94963.78;;;22.19;31.87
1926;BME280;964;42.606;23.588;2022-09-24T05:24:09;94967.22;;;22.42;30.95
1926;BME280;964;42.606;23.588;2022-09-24T05:26:36;94968.81;;;22.40;31.04
1926;BME280;964;42.606;23.588;2022-09-24T05:29:20;94971.03;;;22.25;31.57
1926;BME280;964;42.606;23.588;2022-09-24T05:31:46;94969.13;;;22.65;31.27
1926;BME280;964;42.606;23.588;2022-09-24T05:34:13;94965.00;;;22.80;31.75
1926;BME280;964;42.606;23.588;2022-09-24T05:36:42;94963.84;;;22.98;30.97
1926;BME280;964;42.606;23.588;2022-09-24T05:39:09;94966.97;;;23.32;30.60
1926;BME280;964;42.606;23.588;2022-09-24T05:41:37;94970.34;;;23.20;30.53
1926;BME280;964;42.606;23.588;2022-09-24T05:44:04;94962.28;;;23.68;30.38
1926;BME280;964;42.606;23.588;2022-09-24T05:46:31;94964.31;;;23.80;30.01
1926;BME280;964;42.606;23.588;2022-09-24T05:48:59;94961.78;;;23.57;30.21
1926;BME280;964;42.606;23.588;2022-09-24T05:51:25;94967.09;;;24.25;29.53
1926;BME280;964;42.606;23.588;2022-09-24T05:53:53;94961.88;;;24.18;29.74
1926;BME280;964;42.606;23.588;2022-09-24T05:56:20;94965.16;;;24.26;29.96
1926;BME280;964;42.606;23.588;2022-09-24T05:58:47;94965.97;;;24.39;30.01
1926;BME280;964;42.606;23.588;2022-09-24T06:01:14;94966.91;;;24.61;29.70
1926;BME280;964;42.606;23.588;2022-09-24T06:03:41;94976.13;;;24.64;29.62
1926;BME280;964;42.606;23.588;2022-09-24T06:06:08;94976.91;;;24.64;29.67
1926;BME280;964;42.606;23.588;2022-09-24T06:08:34;94980.16;;;24.72;29.65
1926;BME280;964;42.606;23.588;2022-09-24T06:11:05;94986.66;;;25.57;29.23
1926;BME280;964;42.606;23.588;2022-09-24T06:13:33;94982.41;;;25.81;28.59
1926;BME280;964;42.606;23.588;2022-09-24T06:16:10;94984.34;;;25.81;28.44
1926;BME280;964;42.606;23.588;2022-09-24T06:18:39;94976.88;;;26.32;27.89
1926;BME280;964;42.606;23.588;2022-09-24T06:21:24;94983.28;;;26.38;27.75
1926;BME280;964;42.606;23.588;2022-09-24T06:23:51;94978.69;;;26.69;27.17
1926;BME280;964;42.606;23.588;2022-09-24T06:26:19;94976.03;;;26.78;27.83
1926;BME280;964;42.606;23.588;2022-09-24T06:28:45;94973.09;;;26.86;27.09
1926;BME280;964;42.606;23.588;2022-09-24T06:31:12;94967.84;;;27.22;26.90
1926;BME280;964;42.606;23.588;2022-09-24T06:33:39;94976.88;;;26.66;27.39
1926;BME280;964;42.606;23.588;2022-09-24T06:36:07;94968.47;;;27.26;26.90
1926;BME280;964;42.606;23.588;2022-09-24T06:38:33;94971.16;;;27.78;26.21
1926;BME280;964;42.606;23.588;2022-09-24T06:41:02;94968.56;;;27.84;25.97
1926;BME280;964;42.606;23.588;2022-09-24T06:43:31;94970.06;;;28.25;25.54
1926;BME280;964;42.606;23.588;2022-09-24T06:45:59;94985.28;;;28.04;26.20
1926;BME280;964;42.606;23.588;2022-09-24T06:48:28;94977.34;;;28.55;25.40
1926;BME280;964;42.606;23.588;2022-09-24T06:50:55;94982.50;;;28.62;25.19
1926;BME280;964;42.606;23.588;2022-09-24T06:53:22;94983.81;;;29.21;25.15
1926;BME280;964;42.606;23.588;2022-09-24T06:55:49;94988.50;;;29.21;24.73
1926;BME280;964;42.606;23.588;2022-09-24T06:58:18;94983.81;;;29.73;23.77
1926;BME280;964;42.606;23.588;2022-09-24T07:00:51;94979.09;;;30.06;23.36
1926;BME280;964;42.606;23.588;2022-09-24T07:03:19;94976.47;;;30.35;23.23
1926;BME280;964;42.606;23.588;2022-09-24T07:05:47;94978.41;;;30.82;22.79
1926;BME280;964;42.606;23.588;2022-09-24T07:08:14;94980.63;;;30.54;22.76
1926;BME280;964;42.606;23.588;2022-09-24T07:10:42;94976.91;;;30.19;23.14
1926;BME280;964;42.606;23.588;2022-09-24T07:13:10;94969.47;;;30.43;23.19
1926;BME280;964;42.606;23.588;2022-09-24T07:15:37;94968.81;;;31.31;22.52
1926;BME280;964;42.606;23.588;2022-09-24T07:18:06;94967.69;;;31.52;21.77
1926;BME280;964;42.606;23.588;2022-09-24T07:20:33;94957.50;;;32.63;20.75
1926;BME280;964;42.606;23.588;2022-09-24T07:23:02;94958.53;;;31.90;21.42
1926;BME280;964;42.606;23.588;2022-09-24T07:25:28;94960.22;;;32.02;21.42
1926;BME280;964;42.606;23.588;2022-09-24T07:27:59;94957.44;;;33.03;20.32
1926;BME280;964;42.606;23.588;2022-09-24T07:30:27;94957.84;;;32.30;20.72
1926;BME280;964;42.606;23.588;2022-09-24T07:32:54;94959.78;;;33.73;19.59
1926;BME280;964;42.606;23.588;2022-09-24T07:35:22;94945.53;;;33.69;19.74
1926;BME280;964;42.606;23.588;2022-09-24T07:37:55;94952.38;;;33.84;19.44
1926;BME280;964;42.606;23.588;2022-09-24T07:40:22;94946.59;;;34.25;19.22
1926;BME280;964;42.606;23.588;2022-09-24T07:42:51;94947.59;;;33.85;20.77
1926;BME280;964;42.606;23.588;2022-09-24T07:45:18;94953.09;;;33.79;19.47
1926;BME280;964;42.606;23.588;2022-09-24T07:47:45;94951.78;;;33.69;19.63
1926;BME280;964;42.606;23.588;2022-09-24T07:50:12;94946.09;;;34.26;20.05
1926;BME280;964;42.606;23.588;2022-09-24T07:52:40;94954.34;;;32.49;20.08
1926;BME280;964;42.606;23.588;2022-09-24T07:55:07;94952.56;;;32.67;20.72
1926;BME280;964;42.606;23.588;2022-09-24T07:57:34;94950.38;;;33.22;20.66
1926;BME280;964;42.606;23.588;2022-09-24T08:00:01;94963.34;;;32.96;19.83
1926;BME280;964;42.606;23.588;2022-09-24T08:02:27;94944.81;;;34.16;19.21
1926;BME280;964;42.606;23.588;2022-09-24T08:04:54;94944.16;;;35.25;19.07
1926;BME280;964;42.606;23.588;2022-09-24T08:07:21;94936.75;;;36.27;17.29
1926;BME280;964;42.606;23.588;2022-09-24T08:09:49;94930.72;;;36.29;17.33
1926;BME280;964;42.606;23.588;2022-09-24T08:12:15;94936.09;;;37.14;17.20
1926;BME280;964;42.606;23.588;2022-09-24T08:14:42;94937.09;;;36.70;17.31
1926;BME280;964;42.606;23.588;2022-09-24T08:17:09;94931.84;;;36.67;16.93
1926;BME280;964;42.606;23.588;2022-09-24T08:19:36;94932.13;;;37.04;16.58
1926;BME280;964;42.606;23.588;2022-09-24T08:22:06;94918.50;;;38.63;16.20
1926;BME280;964;42.606;23.588;2022-09-24T08:24:32;94923.91;;;38.12;16.50
1926;BME280;964;42.606;23.588;2022-09-24T08:27:01;94922.31;;;37.93;16.44
1926;BME280;964;42.606;23.588;2022-09-24T08:29:27;94927.94;;;38.11;16.00
1926;BME280;964;42.606;23.588;2022-09-24T08:31:54;94925.88;;;38.79;16.07
1926;BME280;964;42.606;23.588;2022-09-24T08:34:21;94917.84;;;38.57;16.30
1926;BME280;964;42.606;23.588;2022-09-24T08:36:47;94914.28;;;39.76;15.23
1926;BME280;964;42.606;23.588;2022-09-24T08:39:14;94915.34;;;38.35;15.72
1926;BME280;964;42.606;23.588;2022-09-24T08:41:50;94916.50;;;38.82;16.31
1926;BME280;964;42.606;23.588;2022-09-24T08:44:25;94914.53;;;39.14;15.72
1926;BME280;964;42.606;23.588;2022-09-24T08:47:15;94917.94;;;38.89;15.42
1926;BME280;964;42.606;23.588;2022-09-24T08:49:53;94918.75;;;38.22;16.56
1926;BME280;964;42.606;23.588;2022-09-24T08:52:29;94912.56;;;39.28;15.65
1926;BME280;964;42.606;23.588;2022-09-24T08:54:59;94908.97;;;39.91;14.53
1926;BME280;964;42.606;23.588;2022-09-24T08:57:42;94906.19;;;40.31;14.66
1926;BME280;964;42.606;23.588;2022-09-24T09:00:14;94915.28;;;39.47;15.56
1926;BME280;964;42.606;23.588;2022-09-24T09:06:10;94898.75;;;40.26;14.69
1926;BME280;964;42.606;23.588;2022-09-24T09:08:44;94893.00;;;41.04;14.83
1926;BME280;964;42.606;23.588;2022-09-24T09:11:15;94897.13;;;40.77;14.99
1926;BME280;964;42.606;23.588;2022-09-24T09:13:50;94893.91;;;40.86;14.25
1926;BME280;964;42.606;23.588;2022-09-24T09:16:24;94889.47;;;41.66;13.42
1926;BME280;964;42.606;23.588;2022-09-24T09:18:54;94887.72;;;41.35;14.39
1926;BME280;964;42.606;23.588;2022-09-24T09:21:28;94883.81;;;41.09;14.47
1926;BME280;964;42.606;23.588;2022-09-24T09:23:59;94887.50;;;41.53;14.22
1926;BME280;964;42.606;23.588;2022-09-24T09:26:27;94886.56;;;40.15;14.33
1926;BME280;964;42.606;23.588;2022-09-24T09:28:57;94903.78;;;39.69;14.97
1926;BME280;964;42.606;23.588;2022-09-24T09:31:34;94892.53;;;40.06;14.77
1926;BME280;964;42.606;23.588;2022-09-24T09:34:36;94879.44;;;41.22;14.39
1926;BME280;964;42.606;23.588;2022-09-24T09:37:13;94884.38;;;40.61;14.96
1926;BME280;964;42.606;23.588;2022-09-24T09:39:50;94883.13;;;40.36;14.41
1926;BME280;964;42.606;23.588;2022-09-24T09:42:26;94882.88;;;40.60;14.24
1926;BME280;964;42.606;23.588;2022-09-24T09:44:54;94870.16;;;41.19;14.26
1926;BME280;964;42.606;23.588;2022-09-24T09:47:33;94889.25;;;39.18;14.55
1926;BME280;964;42.606;23.588;2022-09-24T09:50:10;94871.72;;;39.29;14.66
1926;BME280;964;42.606;23.588;2022-09-24T09:52:41;94871.38;;;39.90;14.27
1926;BME280;964;42.606;23.588;2022-09-24T09:55:19;94876.25;;;39.58;14.55
1926;BME280;964;42.606;23.588;2022-09-24T09:57:46;94863.13;;;39.58;14.12
1926;BME280;964;42.606;23.588;2022-09-24T10:00:24;94864.91;;;38.79;15.05
1926;BME280;964;42.606;23.588;2022-09-24T10:02:53;94859.91;;;39.54;14.53
1926;BME280;964;42.606;23.588;2022-09-24T10:05:21;94859.84;;;39.73;14.72
1926;BME280;964;42.606;23.588;2022-09-24T10:07:53;94846.25;;;40.35;13.76
1926;BME280;964;42.606;23.588;2022-09-24T10:10:21;94850.22;;;40.00;14.14
1926;BME280;964;42.606;23.588;2022-09-24T10:12:51;94845.94;;;39.60;14.92
1926;BME280;964;42.606;23.588;2022-09-24T10:15:21;94844.69;;;39.74;14.60
1926;BME280;964;42.606;23.588;2022-09-24T10:17:53;94838.38;;;40.73;13.70
1926;BME280;964;42.606;23.588;2022-09-24T10:20:22;94826.63;;;41.50;13.44
1926;BME280;964;42.606;23.588;2022-09-24T10:22:51;94832.47;;;40.30;14.00
1926;BME280;964;42.606;23.588;2022-09-24T10:25:21;94819.84;;;40.96;14.06
1926;BME280;964;42.606;23.588;2022-09-24T10:27:51;94820.88;;;39.92;14.47
1926;BME280;964;42.606;23.588;2022-09-24T10:30:20;94816.66;;;40.11;13.97
1926;BME280;964;42.606;23.588;2022-09-24T10:33:07;94825.19;;;40.40;14.02
1926;BME280;964;42.606;23.588;2022-09-24T10:35:36;94832.88;;;39.29;14.48
1926;BME280;964;42.606;23.588;2022-09-24T10:38:14;94815.66;;;39.88;14.46
1926;BME280;964;42.606;23.588;2022-09-24T10:40:42;94811.31;;;40.40;13.83
1926;BME280;964;42.606;23.588;2022-09-24T10:43:15;94811.78;;;40.85;13.92
1926;BME280;964;42.606;23.588;2022-09-24T10:46:08;94803.41;;;40.44;13.77
1926;BME280;964;42.606;23.588;2022-09-24T10:48:42;94816.91;;;40.00;14.19
1926;BME280;964;42.606;23.588;2022-09-24T10:51:23;94813.06;;;39.38;14.23
1926;BME280;964;42.606;23.588;2022-09-24T10:54:01;94812.00;;;40.06;13.94
1926;BME280;964;42.606;23.588;2022-09-24T10:56:36;94799.19;;;40.03;13.99
1926;BME280;964;42.606;23.588;2022-09-24T10:59:26;94806.97;;;40.52;13.36
1926;BME280;964;42.606;23.588;2022-09-24T11:02:06;94808.63;;;39.16;14.20
1926;BME280;964;42.606;23.588;2022-09-24T11:04:49;94814.97;;;39.30;14.10
1926;BME280;964;42.606;23.588;2022-09-24T11:10:19;94806.66;;;39.43;13.71
1926;BME280;964;42.606;23.588;2022-09-24T11:12:56;94807.44;;;39.56;14.01
1926;BME280;964;42.606;23.588;2022-09-24T11:15:40;94798.41;;;40.63;13.19
1926;BME280;964;42.606;23.588;2022-09-24T11:18:23;94802.81;;;40.25;13.41
1926;BME280;964;42.606;23.588;2022-09-24T11:20:58;94814.50;;;39.26;14.14
1926;BME280;964;42.606;23.588;2022-09-24T11:23:45;94825.03;;;38.82;13.98
1926;BME280;964;42.606;23.588;2022-09-24T11:26:25;94821.31;;;39.11;14.14
1926;BME280;964;42.606;23.588;2022-09-24T11:29:06;94810.72;;;39.55;13.77
1926;BME280;964;42.606;23.588;2022-09-24T11:31:40;94799.41;;;39.40;13.92
1926;BME280;964;42.606;23.588;2022-09-24T11:34:24;94801.75;;;40.82;13.37
1926;BME280;964;42.606;23.588;2022-09-24T11:37:05;94808.44;;;40.66;13.37
1926;BME280;964;42.606;23.588;2022-09-24T11:39:46;94787.75;;;41.37;12.29
1926;BME280;964;42.606;23.588;2022-09-24T11:42:21;94781.56;;;42.89;12.87
1926;BME280;964;42.606;23.588;2022-09-24T11:45:19;94781.16;;;40.44;13.35
1926;BME280;964;42.606;23.588;2022-09-24T11:48:18;94784.06;;;39.52;13.62
1926;BME280;964;42.606;23.588;2022-09-24T11:50:55;94785.84;;;41.03;13.04
1926;BME280;964;42.606;23.588;2022-09-24T11:53:32;94778.13;;;42.02;11.90
1926;BME280;964;42.606;23.588;2022-09-24T11:56:04;94788.94;;;40.79;13.23
1926;BME280;964;42.606;23.588;2022-09-24T11:58:34;94779.59;;;40.69;13.05
1926;BME280;964;42.606;23.588;2022-09-24T12:01:13;94778.38;;;41.47;12.42
1926;BME280;964;42.606;23.588;2022-09-24T12:03:44;94767.41;;;41.21;12.77
1926;BME280;964;42.606;23.588;2022-09-24T12:06:16;94763.59;;;41.52;12.69
1926;BME280;964;42.606;23.588;2022-09-24T12:08:50;94753.41;;;41.91;12.20
1926;BME280;964;42.606;23.588;2022-09-24T12:11:24;94755.94;;;40.76;12.80
1926;BME280;964;42.606;23.588;2022-09-24T12:13:59;94747.13;;;41.62;12.11
1926;BME280;964;42.606;23.588;2022-09-24T12:16:32;94761.97;;;40.87;12.87
1926;BME280;964;42.606;23.588;2022-09-24T12:19:02;94746.53;;;42.43;11.99
1926;BME280;964;42.606;23.588;2022-09-24T12:21:35;94749.59;;;43.06;11.68
1926;BME280;964;42.606;23.588;2022-09-24T12:24:10;94749.81;;;42.19;12.10
1926;BME280;964;42.606;23.588;2022-09-24T12:26:41;94750.69;;;42.14;11.42
1926;BME280;964;42.606;23.588;2022-09-24T12:29:24;94729.94;;;43.81;11.26
1926;BME280;964;42.606;23.588;2022-09-24T12:32:17;94738.25;;;44.04;10.86
1926;BME280;964;42.606;23.588;2022-09-24T12:35:07;94736.78;;;44.35;11.33
1926;BME280;964;42.606;23.588;2022-09-24T12:37:39;94747.66;;;44.24;10.70
1926;BME280;964;42.606;23.588;2022-09-24T12:40:23;94759.13;;;42.21;11.18
1926;BME280;964;42.606;23.588;2022-09-24T12:42:54;94743.16;;;42.29;11.37
1926;BME280;964;42.606;23.588;2022-09-24T12:45:23;94736.94;;;41.72;12.61
1926;BME280;964;42.606;23.588;2022-09-24T12:47:57;94754.97;;;40.73;12.67
1926;BME280;964;42.606;23.588;2022-09-24T12:50:27;94747.56;;;40.96;12.33
1926;BME280;964;42.606;23.588;2022-09-24T12:52:55;94742.09;;;42.55;11.30
1926;BME280;964;42.606;23.588;2022-09-24T12:55:25;94746.59;;;42.88;11.73
1926;BME280;964;42.606;23.588;2022-09-24T12:57:54;94740.28;;;42.65;11.01
1926;BME280;964;42.606;23.588;2022-09-24T13:00:38;94728.19;;;44.73;11.15
1926;BME280;964;42.606;23.588;2022-09-24T13:03:30;94720.84;;;46.40;9.62
1926;BME280;964;42.606;23.588;2022-09-24T13:05:57;94715.00;;;45.67;10.01
1926;BME280;964;42.606;23.588;2022-09-24T13:08:26;94712.06;;;46.26;10.01
1926;BME280;964;42.606;23.588;2022-09-24T13:11:03;94713.31;;;47.06;10.15
1926;BME280;964;42.606;23.588;2022-09-24T13:13:34;94711.41;;;44.73;10.33
1926;BME280;964;42.606;23.588;2022-09-24T13:16:13;94709.03;;;45.29;10.33
1926;BME280;964;42.606;23.588;2022-09-24T13:18:50;94698.72;;;46.44;9.50
1926;BME280;964;42.606;23.588;2022-09-24T13:21:21;94706.25;;;44.62;10.30
1926;BME280;964;42.606;23.588;2022-09-24T13:23:49;94713.44;;;44.73;10.23
1926;BME280;964;42.606;23.588;2022-09-24T13:26:30;94701.84;;;45.77;10.08
1926;BME280;964;42.606;23.588;2022-09-24T13:29:00;94698.59;;;44.87;10.96
1926;BME280;964;42.606;23.588;2022-09-24T13:31:37;94690.06;;;46.23;10.26
1926;BME280;964;42.606;23.588;2022-09-24T13:34:14;94701.09;;;44.51;10.83
1926;BME280;964;42.606;23.588;2022-09-24T13:36:46;94704.88;;;43.59;11.42
1926;BME280;964;42.606;23.588;2022-09-24T13:39:18;94699.22;;;43.74;11.31
1926;BME280;964;42.606;23.588;2022-09-24T13:41:55;94708.25;;;43.57;11.54
1926;BME280;964;42.606;23.588;2022-09-24T13:44:28;94706.13;;;43.65;11.36
1926;BME280;964;42.606;23.588;2022-09-24T13:46:59;94714.22;;;43.54;10.93
1926;BME280;964;42.606;23.588;2022-09-24T13:49:28;94702.19;;;43.76;10.82
1926;BME280;964;42.606;23.588;2022-09-24T13:52:07;94703.28;;;42.87;11.14
1926;BME280;964;42.606;23.588;2022-09-24T13:54:46;94698.38;;;44.68;10.37
1926;BME280;964;42.606;23.588;2022-09-24T13:57:22;94676.13;;;46.78;9.58